South Belmar, New Jersey
Current Conditions -  °F | °C
As of 9:35 PM on Thursday 20 Nov 2014 (Local Time) from KBLM Reporting Station
Broken Clouds Broken Clouds  
Wind Chill: 26°   Ceiling: 9000
Heat Index: 36°   Visibility: 10mi
Dew Point: 10°   Wind: 16mph
Humidity: 35%   Direction: 300°WNW
Pressure: 29.99"   Gusts: 26mph
Location:  40.1681°N, 74.0774°W
Report Text: KBLM 210235Z AUTO 30014G23KT 10SM BKN090 02/M12 A2999 RMK AO1
Loading
Personal Weather Stations






























Interactive Weather Map New forecast layout! Learn more

10-Day Weather Forecast

Advertisements
Track Severe Weather on mobile